Time;durP1;ratioP1;P1;durP2;ratioP2;P2;SDS_P1;SDS_P2;PMS_P1;PMS_P2;Temp;Humidity;BMP_temperature;BMP_pressure;BME280_temperature;BME280_humidity;BME280_pressure;Samples;Min_cycle;Max_cycle;Signal;HPM_P1;HPM_P2
2021/11/17 02:26:13;;;;;;;26.50;10.15;;;7.60;99.90;;;;;;5057680;28;20022;-78
2021/11/17 02:28:42;;;;;;;23.05;10.10;;;7.60;99.90;;;;;;5003864;28;20062;-78
2021/11/17 02:31:26;;;;;;;27.15;9.80;;;7.70;99.90;;;;;;5065069;28;20047;-79
2021/11/17 02:34:10;;;;;;;26.35;10.07;;;7.60;99.90;;;;;;5069602;28;20368;-79
2021/11/17 02:36:47;;;;;;;25.92;10.48;;;7.60;99.90;;;;;;5067123;28;20516;-78
2021/11/17 02:39:32;;;;;;;27.38;10.48;;;7.60;99.90;;;;;;5082655;28;20024;-77
2021/11/17 02:42:14;;;;;;;21.60;9.38;;;7.60;99.90;;;;;;5064117;28;20024;-77
2021/11/17 02:44:55;;;;;;;25.80;10.30;;;7.60;99.90;;;;;;5063659;28;20166;-77
2021/11/17 02:47:46;;;;;;;25.08;9.38;;;7.60;99.90;;;;;;5057508;28;20075;-77
2021/11/17 02:50:18;;;;;;;27.90;10.10;;;7.60;99.90;;;;;;5039972;28;20039;-77
2021/11/17 02:52:50;;;;;;;20.02;9.00;;;7.60;99.90;;;;;;5073909;28;20464;-77
2021/11/17 02:55:39;;;;;;;24.33;10.38;;;7.50;99.90;;;;;;5040291;28;20375;-78
2021/11/17 02:58:17;;;;;;;27.08;9.20;;;7.50;99.90;;;;;;5010518;28;20044;-77
2021/11/17 03:01:10;;;;;;;20.38;9.23;;;7.50;99.90;;;;;;5056294;28;20031;-79
2021/11/17 03:03:39;;;;;;;25.25;9.40;;;7.50;99.90;;;;;;5056283;28;20472;-78
2021/11/17 03:06:29;;;;;;;22.02;9.57;;;7.50;99.90;;;;;;5056676;28;20078;-79
2021/11/17 03:08:55;;;;;;;26.30;9.60;;;7.40;99.90;;;;;;5039346;28;20560;-79
2021/11/17 03:11:51;;;;;;;26.67;9.87;;;7.50;99.90;;;;;;5056640;28;20052;-78
2021/11/17 03:14:17;;;;;;;27.13;10.20;;;7.50;99.90;;;;;;5056627;28;20021;-78
2021/11/17 03:16:49;;;;;;;24.15;9.63;;;7.50;99.90;;;;;;5056013;28;20030;-79
2021/11/17 03:19:27;;;;;;;23.98;9.63;;;7.60;99.90;;;;;;5056626;28;20450;-77
2021/11/17 03:21:56;;;;;;;23.92;9.68;;;7.50;99.90;;;;;;5073572;28;20021;-78
2021/11/17 03:24:33;;;;;;;22.75;9.75;;;7.50;99.90;;;;;;5056512;28;20024;-79
2021/11/17 03:27:40;;;;;;;30.50;10.50;;;7.50;99.90;;;;;;5089546;28;20024;-79
2021/11/17 03:30:05;;;;;;;24.55;9.95;;;7.60;99.90;;;;;;5067906;28;20051;-78
2021/11/17 03:32:34;;;;;;;24.48;8.73;;;7.60;99.90;;;;;;5093444;28;20453;-79
2021/11/17 03:35:19;;;;;;;27.20;9.68;;;7.60;99.90;;;;;;5094116;28;20020;-78
2021/11/17 03:37:56;;;;;;;24.92;9.60;;;7.60;99.90;;;;;;5058697;28;20040;-78
2021/11/17 03:40:36;;;;;;;25.48;9.63;;;7.60;99.90;;;;;;5076167;28;20083;-78
2021/11/17 03:43:21;;;;;;;22.05;9.23;;;7.60;99.90;;;;;;5059485;28;20028;-78
2021/11/17 03:45:58;;;;;;;20.90;8.63;;;7.60;99.90;;;;;;5075367;28;20042;-78
2021/11/17 03:48:39;;;;;;;18.65;7.97;;;7.50;99.90;;;;;;5059793;28;20020;-78
2021/11/17 03:51:20;;;;;;;21.30;8.82;;;7.50;99.90;;;;;;5076525;28;20024;-78
2021/11/17 03:54:14;;;;;;;22.77;8.70;;;7.60;99.90;;;;;;5077236;28;20020;-78
2021/11/17 03:56:59;;;;;;;22.65;9.02;;;7.50;99.90;;;;;;5093813;28;20020;-78
2021/11/17 03:59:27;;;;;;;23.42;8.60;;;7.60;99.90;;;;;;5093964;28;20032;-78
2021/11/17 04:01:56;;;;;;;20.27;8.38;;;7.50;99.90;;;;;;5075376;28;20024;-78
2021/11/17 04:04:24;;;;;;;21.55;8.45;;;7.50;99.90;;;;;;5075896;28;20024;-78
2021/11/17 04:07:11;;;;;;;21.35;8.50;;;7.50;99.90;;;;;;5093447;28;20024;-78
2021/11/17 04:09:37;;;;;;;21.05;7.93;;;7.50;99.90;;;;;;5075851;28;20027;-78
2021/11/17 04:12:05;;;;;;;22.00;8.13;;;7.50;99.90;;;;;;5076145;28;20024;-78
2021/11/17 04:14:40;;;;;;;25.38;9.25;;;7.50;99.90;;;;;;5093722;28;20475;-78
2021/11/17 04:17:08;;;;;;;20.63;8.15;;;7.50;99.90;;;;;;5076055;28;20042;-78
2021/11/17 04:19:49;;;;;;;21.30;8.27;;;7.50;99.90;;;;;;5093953;28;20028;-78
2021/11/17 04:22:43;;;;;;;25.92;8.85;;;7.50;99.90;;;;;;5076171;28;20024;-78
2021/11/17 04:25:11;;;;;;;21.10;7.97;;;7.50;99.90;;;;;;5059374;28;20021;-78
2021/11/17 04:28:10;;;;;;;18.67;7.53;;;7.50;99.90;;;;;;5093943;28;20389;-78
2021/11/17 04:30:39;;;;;;;17.55;7.55;;;7.50;99.90;;;;;;5075830;28;20020;-78
2021/11/17 04:33:29;;;;;;;19.15;7.80;;;7.60;99.90;;;;;;5076193;28;20479;-78
2021/11/17 04:36:11;;;;;;;17.60;6.97;;;7.60;99.90;;;;;;5075484;28;20020;-78
2021/11/17 04:39:21;;;;;;;18.23;7.07;;;7.50;99.90;;;;;;5077074;28;20066;-78
2021/11/17 04:42:05;;;;;;;18.02;7.35;;;7.50;99.90;;;;;;5061222;28;20062;-78
2021/11/17 04:44:52;;;;;;;20.73;7.80;;;7.50;99.90;;;;;;5097394;28;20024;-78
2021/11/17 04:47:39;;;;;;;20.33;7.95;;;7.50;99.90;;;;;;5079523;28;20020;-78
2021/11/17 04:50:28;;;;;;;21.17;8.05;;;7.50;99.90;;;;;;5097083;28;20016;-78
2021/11/17 04:53:04;;;;;;;19.95;7.78;;;7.50;99.90;;;;;;5081122;28;20012;-78
2021/11/17 04:55:51;;;;;;;20.55;7.78;;;7.50;99.90;;;;;;5062549;28;20020;-79
2021/11/17 04:58:45;;;;;;;17.08;7.22;;;7.50;99.90;;;;;;5080084;28;20093;-79
2021/11/17 05:01:11;;;;;;;19.60;7.88;;;7.50;99.90;;;;;;5070325;28;20042;-79
2021/11/17 05:03:51;;;;;;;24.52;8.60;;;7.50;99.90;;;;;;5066721;28;20016;-79
2021/11/17 05:06:23;;;;;;;22.55;8.15;;;7.50;99.90;;;;;;5047663;28;20021;-78
2021/11/17 05:09:29;;;;;;;23.00;9.23;;;7.50;99.90;;;;;;5058507;28;20111;-78
2021/11/17 05:12:01;;;;;;;22.35;8.75;;;7.50;99.90;;;;;;5008202;28;20033;-78
2021/11/17 05:14:32;;;;;;;22.25;8.23;;;7.50;99.90;;;;;;5058741;28;20115;-78
2021/11/17 05:17:02;;;;;;;24.63;7.68;;;7.50;99.90;;;;;;5058475;28;20024;-78
2021/11/17 05:19:39;;;;;;;19.65;7.93;;;7.40;99.90;;;;;;5058744;28;20123;-79
2021/11/17 05:22:14;;;;;;;19.85;7.35;;;7.30;99.90;;;;;;5092484;28;20106;-78
2021/11/17 05:24:42;;;;;;;17.20;6.95;;;7.40;99.90;;;;;;5096390;28;20024;-79
2021/11/17 05:27:47;;;;;;;20.38;7.05;;;7.40;99.90;;;;;;5096795;28;20020;-78
2021/11/17 05:30:51;;;;;;;19.65;6.70;;;7.30;99.90;;;;;;5065423;28;20016;-79
2021/11/17 05:33:31;;;;;;;18.35;7.05;;;7.30;99.90;;;;;;5097103;28;20047;-78
2021/11/17 05:36:12;;;;;;;15.80;6.68;;;7.30;99.90;;;;;;5078208;28;20440;-78
2021/11/17 05:38:47;;;;;;;19.23;7.00;;;7.30;99.90;;;;;;5085206;28;20530;-78
2021/11/17 05:41:36;;;;;;;18.47;6.87;;;7.30;99.90;;;;;;5068380;28;20372;-78
2021/11/17 05:44:29;;;;;;;19.55;7.30;;;7.30;99.90;;;;;;5070511;28;20497;-78
2021/11/17 05:47:32;;;;;;;18.52;7.57;;;7.30;99.90;;;;;;5053448;28;20020;-78
2021/11/17 05:50:37;;;;;;;16.63;6.25;;;7.30;99.90;;;;;;5065700;28;20039;-78
2021/11/17 05:53:27;;;;;;;18.48;6.30;;;7.30;99.90;;;;;;5083879;28;20069;-79
2021/11/17 05:56:05;;;;;;;15.95;6.25;;;7.20;99.90;;;;;;5053108;28;20472;-79
2021/11/17 05:59:00;;;;;;;16.33;6.15;;;7.20;99.90;;;;;;5051986;28;20044;-79
2021/11/17 06:01:44;;;;;;;17.08;5.88;;;7.20;99.90;;;;;;5083075;28;20024;-79
2021/11/17 06:04:11;;;;;;;18.10;6.27;;;7.20;99.90;;;;;;5085473;28;20104;-79
2021/11/17 06:06:38;;;;;;;16.67;6.07;;;7.20;99.90;;;;;;5066008;28;20031;-78
2021/11/17 06:09:06;;;;;;;17.08;6.28;;;7.20;99.90;;;;;;5064294;28;20615;-78
2021/11/17 06:11:47;;;;;;;13.02;5.10;;;7.20;99.90;;;;;;5070613;28;20043;-78
2021/11/17 06:14:41;;;;;;;13.80;5.22;;;7.20;99.90;;;;;;5085438;28;20038;-78
2021/11/17 06:17:14;;;;;;;14.20;5.73;;;7.20;99.90;;;;;;5061684;28;20039;-77
2021/11/17 06:19:44;;;;;;;16.10;5.70;;;7.20;99.90;;;;;;5066348;28;20023;-77
2021/11/17 06:22:12;;;;;;;12.33;4.87;;;7.20;99.90;;;;;;5065571;28;20044;-78
2021/11/17 06:24:39;;;;;;;14.20;5.68;;;7.20;99.90;;;;;;5089533;28;20089;-79
2021/11/17 06:27:07;;;;;;;16.53;5.97;;;7.20;99.90;;;;;;5094876;28;20012;-79
2021/11/17 06:29:37;;;;;;;13.10;5.30;;;7.20;99.90;;;;;;5095148;28;20016;-79
2021/11/17 06:32:04;;;;;;;12.97;5.10;;;7.20;99.90;;;;;;5076676;28;20050;-78
2021/11/17 06:34:32;;;;;;;13.23;5.28;;;7.20;99.90;;;;;;5076988;28;20161;-78
2021/11/17 06:36:59;;;;;;;12.40;5.35;;;7.20;99.90;;;;;;5076805;28;20035;-78
2021/11/17 06:39:29;;;;;;;11.95;4.75;;;7.20;99.90;;;;;;5077170;28;20445;-78
2021/11/17 06:41:56;;;;;;;13.10;4.65;;;7.20;99.90;;;;;;5076617;28;20030;-78
2021/11/17 06:44:23;;;;;;;15.23;5.05;;;7.20;99.90;;;;;;5077404;28;20020;-78
2021/11/17 06:46:49;;;;;;;11.98;4.80;;;7.20;99.90;;;;;;5095138;28;20023;-77
2021/11/17 06:49:14;;;;;;;14.95;5.40;;;7.20;99.90;;;;;;5077480;28;20026;-77
2021/11/17 06:51:40;;;;;;;13.70;4.60;;;7.20;99.90;;;;;;5095193;28;20028;-77
2021/11/17 06:54:06;;;;;;;10.65;4.43;;;7.20;99.90;;;;;;5076306;28;20020;-77
2021/11/17 06:56:31;;;;;;;11.07;4.53;;;7.20;99.90;;;;;;5076916;28;20054;-77
2021/11/17 06:58:57;;;;;;;16.30;5.03;;;7.20;99.90;;;;;;5094209;28;20513;-76
2021/11/17 07:01:23;;;;;;;12.30;4.97;;;7.20;99.90;;;;;;5077026;28;20024;-77
2021/11/17 07:03:49;;;;;;;14.33;5.57;;;7.20;99.90;;;;;;5094303;28;20016;-77
2021/11/17 07:06:15;;;;;;;13.50;5.60;;;7.20;99.90;;;;;;5076590;28;20027;-77
2021/11/17 07:08:41;;;;;;;14.87;5.00;;;7.20;99.90;;;;;;5076857;28;20035;-78
2021/11/17 07:11:06;;;;;;;13.53;4.80;;;7.20;99.90;;;;;;5076377;28;20365;-78
2021/11/17 07:13:32;;;;;;;13.13;5.25;;;7.20;99.90;;;;;;5076602;28;20016;-78
2021/11/17 07:16:00;;;;;;;11.93;4.93;;;7.10;99.90;;;;;;5076304;28;20023;-78
2021/11/17 07:18:26;;;;;;;10.17;3.93;;;7.10;99.90;;;;;;5094357;28;20016;-78
2021/11/17 07:20:52;;;;;;;12.68;4.75;;;7.10;99.90;;;;;;5093651;28;20099;-77
2021/11/17 07:23:18;;;;;;;10.10;4.87;;;7.10;99.90;;;;;;5076367;28;20034;-76
2021/11/17 07:25:44;;;;;;;10.00;4.57;;;7.10;99.90;;;;;;5076380;28;20028;-79
2021/11/17 07:28:10;;;;;;;11.68;4.95;;;7.10;99.90;;;;;;5075842;28;20020;-79
2021/11/17 07:30:39;;;;;;;10.40;4.67;;;7.10;99.90;;;;;;5094248;28;20030;-78
2021/11/17 07:33:06;;;;;;;12.97;4.70;;;7.10;99.90;;;;;;5071149;28;20406;-79
2021/11/17 07:35:37;;;;;;;10.70;4.53;;;7.10;99.90;;;;;;5072801;28;20020;-79
2021/11/17 07:38:07;;;;;;;9.23;4.13;;;7.20;99.90;;;;;;5092878;28;20024;-78
2021/11/17 07:40:37;;;;;;;10.07;4.18;;;7.20;99.90;;;;;;5075738;28;20477;-78
2021/11/17 07:43:09;;;;;;;10.82;3.67;;;7.20;99.90;;;;;;5092123;28;20061;-76
2021/11/17 07:45:36;;;;;;;7.88;3.20;;;7.20;99.90;;;;;;5075607;28;20072;-77
2021/11/17 07:48:03;;;;;;;6.95;2.30;;;7.20;99.90;;;;;;5091911;28;20040;-76
2021/11/17 07:50:29;;;;;;;3.47;1.97;;;7.20;99.90;;;;;;5075569;28;20031;-76
2021/11/17 07:52:54;;;;;;;5.65;2.20;;;7.20;99.90;;;;;;5071119;28;20025;-76
2021/11/17 07:55:21;;;;;;;20.33;10.30;;;7.20;99.90;;;;;;5062783;28;20025;-76
2021/11/17 07:57:49;;;;;;;4.78;2.85;;;7.20;99.90;;;;;;5082298;28;20036;-76
2021/11/17 08:00:22;;;;;;;3.92;2.50;;;7.20;99.90;;;;;;5064475;28;20020;-78
2021/11/17 08:02:49;;;;;;;6.60;2.97;;;7.20;99.90;;;;;;5083179;28;20393;-77
2021/11/17 08:05:15;;;;;;;4.47;2.28;;;7.20;99.90;;;;;;5083672;28;20443;-78
2021/11/17 08:07:42;;;;;;;7.40;2.60;;;7.10;99.90;;;;;;5071433;28;20056;-77
2021/11/17 08:10:18;;;;;;;6.25;2.58;;;7.10;99.90;;;;;;5087149;28;20035;-77
2021/11/17 08:12:44;;;;;;;4.67;2.27;;;7.10;99.90;;;;;;5066988;28;20024;-77
2021/11/17 08:15:10;;;;;;;7.43;2.28;;;7.10;99.90;;;;;;5062426;28;20020;-77
2021/11/17 08:17:38;;;;;;;4.45;1.80;;;7.10;99.90;;;;;;5059360;28;20028;-77
2021/11/17 08:20:05;;;;;;;4.10;2.13;;;7.00;99.90;;;;;;5064981;28;20024;-76
2021/11/17 08:22:31;;;;;;;5.30;2.20;;;7.00;99.90;;;;;;5087263;28;20031;-77
2021/11/17 08:24:57;;;;;;;11.37;2.70;;;7.00;99.90;;;;;;5078238;28;20469;-77
2021/11/17 08:27:22;;;;;;;10.73;2.10;;;7.00;99.90;;;;;;5096748;28;20028;-77
2021/11/17 08:29:53;;;;;;;6.50;1.97;;;7.00;99.90;;;;;;5072172;28;20397;-77
2021/11/17 08:32:21;;;;;;;2.63;1.60;;;7.00;99.90;;;;;;5065360;28;20481;-79
2021/11/17 08:34:47;;;;;;;2.43;1.33;;;7.00;99.90;;;;;;5069092;28;20021;-78
2021/11/17 08:37:13;;;;;;;4.03;1.33;;;7.00;99.90;;;;;;5086861;28;20027;-78
2021/11/17 08:39:43;;;;;;;3.80;1.47;;;7.10;99.90;;;;;;5088464;28;20032;-76
2021/11/17 08:42:11;;;;;;;3.23;1.63;;;7.10;99.90;;;;;;5076029;28;20441;-76
2021/11/17 08:44:41;;;;;;;3.13;1.40;;;7.10;99.90;;;;;;5077814;28;20401;-77
2021/11/17 08:47:08;;;;;;;6.70;1.50;;;7.10;99.90;;;;;;5077529;28;20035;-77
2021/11/17 08:49:35;;;;;;;2.60;1.50;;;7.20;99.90;;;;;;5096824;28;20023;-78
2021/11/17 08:52:01;;;;;;;4.03;1.90;;;7.20;99.90;;;;;;5076055;28;20031;-76
2021/11/17 08:54:28;;;;;;;4.40;2.00;;;7.20;99.90;;;;;;5096278;28;20024;-77
2021/11/17 08:56:55;;;;;;;4.75;2.08;;;7.20;99.90;;;;;;5077574;28;20016;-77
2021/11/17 08:59:23;;;;;;;4.32;2.05;;;7.30;99.90;;;;;;5096232;28;20034;-76
2021/11/17 09:01:49;;;;;;;4.50;2.15;;;7.30;99.90;;;;;;5076911;28;20078;-78
2021/11/17 09:04:15;;;;;;;6.40;2.70;;;7.40;99.90;;;;;;5095956;28;20032;-78
2021/11/17 09:06:40;;;;;;;4.17;2.63;;;7.40;99.90;;;;;;5095755;28;20020;-77
2021/11/17 09:09:07;;;;;;;4.03;2.37;;;7.40;99.90;;;;;;5077008;28;20016;-78
2021/11/17 09:11:38;;;;;;;4.18;2.03;;;7.40;99.90;;;;;;5076760;28;20023;-78
2021/11/17 09:14:05;;;;;;;3.78;1.85;;;7.30;99.90;;;;;;5077382;28;20023;-78
2021/11/17 09:16:43;;;;;;;5.23;2.07;;;7.30;99.90;;;;;;5076810;28;20360;-78
2021/11/17 09:19:09;;;;;;;3.37;2.27;;;7.30;99.90;;;;;;5077259;28;20032;-78
2021/11/17 09:21:38;;;;;;;5.93;2.23;;;7.40;99.90;;;;;;5094051;28;20024;-78
2021/11/17 09:24:07;;;;;;;4.00;2.00;;;7.40;99.90;;;;;;5094940;28;20028;-77
2021/11/17 09:26:33;;;;;;;2.97;1.80;;;7.40;99.90;;;;;;5095376;28;20020;-77
2021/11/17 09:29:01;;;;;;;2.80;1.60;;;7.30;99.90;;;;;;5077287;28;20380;-78
2021/11/17 09:31:29;;;;;;;2.40;1.45;;;7.40;99.90;;;;;;5095567;28;20028;-79
2021/11/17 09:33:55;;;;;;;3.85;2.10;;;7.40;99.90;;;;;;5076171;28;20028;-78
2021/11/17 09:36:25;;;;;;;4.68;2.05;;;7.40;99.90;;;;;;5077176;28;20365;-78
2021/11/17 09:38:52;;;;;;;3.47;2.00;;;7.40;99.90;;;;;;5076410;28;20074;-77
2021/11/17 09:41:30;;;;;;;3.70;2.10;;;7.40;99.90;;;;;;5077475;28;20085;-77
2021/11/17 09:44:06;;;;;;;3.85;2.08;;;7.40;99.90;;;;;;5087793;28;20020;-78
2021/11/17 09:46:34;;;;;;;4.97;2.42;;;7.40;99.90;;;;;;5064980;28;20070;-78
2021/11/17 09:49:04;;;;;;;5.25;2.22;;;7.50;99.90;;;;;;5093956;28;20055;-77
2021/11/17 09:51:55;;;;;;;4.00;2.05;;;7.50;99.90;;;;;;5077528;28;20024;-77
2021/11/17 09:55:03;;;;;;;6.70;2.70;;;7.50;99.90;;;;;;5077354;28;20055;-84
2021/11/17 09:57:33;;;;;;;3.97;2.53;;;7.50;99.90;;;;;;5033804;28;20051;-78
2021/11/17 10:00:20;;;;;;;3.63;2.10;;;7.50;99.90;;;;;;5091087;28;20057;-79
2021/11/17 10:02:58;;;;;;;3.42;1.90;;;7.60;99.90;;;;;;5080904;28;20111;-78
2021/11/17 10:14:12;;;;;;;1.73;1.23;;;7.80;99.90;;;;;;5094842;28;20044;-77
2021/11/17 10:16:39;;;;;;;1.13;0.90;;;7.80;99.90;;;;;;5093455;28;20387;-78
2021/11/17 10:19:25;;;;;;;2.63;0.70;;;7.70;99.40;;;;;;5092001;28;20024;-76
2021/11/17 10:22:03;;;;;;;1.70;0.90;;;7.70;99.10;;;;;;5073702;28;20028;-77
2021/11/17 10:24:47;;;;;;;0.90;0.68;;;7.80;99.40;;;;;;5075490;28;20080;-77
2021/11/17 10:27:26;;;;;;;2.10;0.68;;;7.80;99.50;;;;;;5075067;28;20028;-77
2021/11/17 10:30:11;;;;;;;1.83;0.80;;;7.80;99.50;;;;;;5060624;28;20623;-76
2021/11/17 10:32:58;;;;;;;1.02;0.80;;;7.80;99.40;;;;;;5075571;28;20419;-77
2021/11/17 10:35:30;;;;;;;2.15;0.93;;;7.90;99.20;;;;;;5093604;28;20042;-76
2021/11/17 10:37:58;;;;;;;1.40;0.63;;;7.90;99.60;;;;;;5075531;28;20350;-75
2021/11/17 10:40:27;;;;;;;2.92;0.77;;;7.90;99.10;;;;;;5074866;28;20089;-76
2021/11/17 10:43:07;;;;;;;1.30;0.85;;;7.80;99.40;;;;;;5092781;28;20028;-73
2021/11/17 10:45:39;;;;;;;2.53;0.70;;;7.80;99.80;;;;;;5074634;28;20023;-77
2021/11/17 10:48:17;;;;;;;2.00;0.85;;;7.80;99.90;;;;;;5075027;28;20039;-77
2021/11/17 10:50:43;;;;;;;1.10;0.73;;;7.80;99.70;;;;;;5089321;28;20563;-75
2021/11/17 10:53:24;;;;;;;2.60;0.82;;;7.80;99.80;;;;;;5073043;28;20056;-76
2021/11/17 10:55:54;;;;;;;2.17;1.23;;;7.90;99.90;;;;;;5075522;28;20052;-77
2021/11/17 10:58:26;;;;;;;2.92;1.40;;;7.80;99.70;;;;;;5075801;28;20047;-79
2021/11/17 11:01:00;;;;;;;3.97;1.45;;;7.80;99.90;;;;;;5073828;28;20051;-77
2021/11/17 11:03:36;;;;;;;2.05;1.08;;;7.80;99.90;;;;;;5072881;28;20478;-76
2021/11/17 11:06:21;;;;;;;4.03;1.15;;;7.80;99.90;;;;;;5074086;28;20477;-75
2021/11/17 11:08:52;;;;;;;2.35;1.23;;;7.80;99.70;;;;;;5086903;28;20039;-75
2021/11/17 11:11:20;;;;;;;1.75;0.98;;;7.80;99.00;;;;;;5068100;28;20260;-75
2021/11/17 11:13:52;;;;;;;3.40;1.30;;;7.80;98.70;;;;;;5072656;28;20020;-77
2021/11/17 11:16:17;;;;;;;;;;;7.80;98.40;;;;;;5087060;28;20129;-77
2021/11/17 11:18:51;;;;;;;1.40;0.98;;;7.80;98.20;;;;;;5073498;28;20497;-77
2021/11/17 11:21:39;;;;;;;3.20;1.75;;;7.80;97.40;;;;;;5070315;28;20028;-76
2021/11/17 11:24:13;;;;;;;5.07;2.83;;;7.70;97.20;;;;;;5061815;28;20040;-76
2021/11/17 11:26:57;;;;;;;2.17;1.08;;;7.70;97.30;;;;;;5071994;28;20024;-77
2021/11/17 11:29:30;;;;;;;1.00;0.90;;;7.80;97.00;;;;;;5070928;28;20036;-76
2021/11/17 11:31:57;;;;;;;4.50;1.00;;;7.80;96.40;;;;;;5070945;28;20140;-77
2021/11/17 11:34:46;;;;;;;6.70;1.30;;;7.70;96.90;;;;;;5071886;28;20012;-77
2021/11/17 11:37:32;;;;;;;4.18;1.42;;;7.80;97.00;;;;;;5071932;28;20097;-77
2021/11/17 11:40:05;;;;;;;2.50;1.35;;;7.80;97.20;;;;;;5067780;28;20040;-77
2021/11/17 11:43:01;;;;;;;3.70;1.73;;;7.80;97.50;;;;;;5071231;28;20028;-77
2021/11/17 11:45:26;;;;;;;3.30;1.77;;;7.90;97.10;;;;;;5071511;28;20039;-78
2021/11/17 11:47:56;;;;;;;2.10;1.30;;;7.80;97.60;;;;;;5071311;28;20024;-78
2021/11/17 11:50:35;;;;;;;2.40;1.58;;;7.80;97.70;;;;;;5088451;28;20025;-77
2021/11/17 11:53:25;;;;;;;6.95;2.00;;;7.80;97.90;;;;;;5071161;28;20416;-77
2021/11/17 11:55:52;;;;;;;5.00;2.25;;;7.70;98.40;;;;;;5093854;28;20099;-75
2021/11/17 11:58:20;;;;;;;2.38;1.55;;;7.70;98.80;;;;;;5093393;28;20540;-78
2021/11/17 12:00:59;;;;;;;2.67;1.50;;;7.70;99.00;;;;;;5093386;28;20032;-76
2021/11/17 12:03:28;;;;;;;2.25;1.35;;;7.80;98.20;;;;;;5074324;28;20039;-75
2021/11/17 12:06:26;;;;;;;1.90;1.30;;;7.80;98.60;;;;;;5092164;28;20020;-75
2021/11/17 12:09:07;;;;;;;2.38;1.38;;;7.80;97.80;;;;;;5087509;28;20040;-77
2021/11/17 12:11:34;;;;;;;2.33;1.40;;;7.80;97.80;;;;;;5073173;28;20032;-76
2021/11/17 12:14:31;;;;;;;1.67;1.25;;;7.80;98.10;;;;;;5091653;28;20036;-77
2021/11/17 12:16:58;;;;;;;2.15;1.38;;;7.80;98.20;;;;;;5072610;28;20029;-77
2021/11/17 12:19:26;;;;;;;1.73;0.93;;;7.80;98.10;;;;;;5093008;28;20016;-78
2021/11/17 12:22:03;;;;;;;2.23;1.37;;;7.80;98.20;;;;;;5074448;28;20066;-77
2021/11/17 12:24:35;;;;;;;1.52;1.13;;;7.80;98.40;;;;;;5067200;28;20406;-79
2021/11/17 12:27:15;;;;;;;1.97;1.10;;;7.80;98.60;;;;;;5093923;28;20020;-78
2021/11/17 12:29:46;;;;;;;2.80;1.17;;;7.80;98.20;;;;;;5076842;28;20027;-78
2021/11/17 12:32:15;;;;;;;2.50;1.40;;;7.80;98.30;;;;;;5092422;28;20039;-75
2021/11/17 12:34:43;;;;;;;2.92;1.63;;;7.80;98.10;;;;;;5092490;28;20059;-79
2021/11/17 12:37:18;;;;;;;2.97;1.20;;;7.90;98.20;;;;;;5074599;28;20063;-76
2021/11/17 12:39:59;;;;;;;2.50;1.35;;;8.00;98.20;;;;;;5066822;28;20029;-77
2021/11/17 12:42:35;;;;;;;3.72;1.50;;;8.00;98.20;;;;;;5074678;28;20028;-78
2021/11/17 12:45:23;;;;;;;2.40;1.42;;;7.90;97.80;;;;;;5074062;28;20060;-76
2021/11/17 12:47:59;;;;;;;2.03;1.35;;;7.80;98.20;;;;;;5076911;28;20028;-75
2021/11/17 12:50:45;;;;;;;5.35;1.50;;;8.20;97.00;;;;;;5074165;28;20027;-76
2021/11/17 12:53:28;;;;;;;2.65;1.67;;;8.50;97.00;;;;;;5073194;28;20051;-76
2021/11/17 12:55:59;;;;;;;3.53;1.70;;;8.70;96.70;;;;;;5092598;28;20031;-74
2021/11/17 12:58:35;;;;;;;2.53;1.60;;;8.80;95.90;;;;;;5074163;28;20047;-75
2021/11/17 13:01:10;;;;;;;2.83;1.88;;;8.80;95.60;;;;;;5073992;28;20127;-78
2021/11/17 13:03:47;;;;;;;3.58;1.88;;;8.90;95.10;;;;;;5073697;28;20040;-79
2021/11/17 13:06:19;;;;;;;3.63;2.45;;;8.90;95.30;;;;;;5074589;28;20032;-78
2021/11/17 13:08:47;;;;;;;3.08;1.90;;;8.90;95.10;;;;;;5074605;28;20040;-79
2021/11/17 13:11:20;;;;;;;2.60;1.35;;;8.90;95.40;;;;;;5067015;28;20035;-78
2021/11/17 13:13:55;;;;;;;2.60;1.63;;;8.80;95.20;;;;;;5060317;28;20028;-78
2021/11/17 13:16:36;;;;;;;4.57;1.90;;;8.70;95.60;;;;;;5086970;28;20034;-77
2021/11/17 13:19:05;;;;;;;2.83;1.55;;;8.60;95.80;;;;;;5083416;28;20024;-77
2021/11/17 13:21:38;;;;;;;2.10;1.50;;;8.70;96.20;;;;;;5086370;28;20034;-76
2021/11/17 13:24:16;;;;;;;3.03;1.80;;;8.70;96.50;;;;;;5062638;28;20032;-75
2021/11/17 13:26:45;;;;;;;4.03;1.77;;;8.70;96.40;;;;;;5072520;28;20027;-78
2021/11/17 13:29:23;;;;;;;3.65;1.58;;;8.60;96.40;;;;;;5088410;28;20035;-77
2021/11/17 13:32:14;;;;;;;3.33;1.70;;;8.50;96.80;;;;;;5092549;28;20074;-77
2021/11/17 13:34:50;;;;;;;3.53;1.92;;;8.50;97.10;;;;;;5072107;28;20114;-78
2021/11/17 13:37:23;;;;;;;2.55;1.55;;;8.50;97.20;;;;;;5074442;28;20036;-76
2021/11/17 13:40:13;;;;;;;2.47;1.60;;;8.40;97.50;;;;;;5075924;28;20074;-76
2021/11/17 13:42:39;;;;;;;4.05;1.75;;;8.40;97.30;;;;;;5062757;28;20047;-74
2021/11/17 13:45:10;;;;;;;4.93;1.70;;;8.40;97.40;;;;;;5077677;28;20024;-75
2021/11/17 13:47:36;;;;;;;2.92;1.67;;;8.50;97.40;;;;;;5092537;28;20031;-74
2021/11/17 13:50:04;;;;;;;4.65;1.65;;;8.40;97.60;;;;;;5073543;28;20056;-78
2021/11/17 13:52:33;;;;;;;2.55;1.77;;;8.30;97.80;;;;;;5091402;28;20047;-77
2021/11/17 13:55:00;;;;;;;3.92;2.13;;;8.40;97.80;;;;;;5073432;28;20632;-76
2021/11/17 13:57:27;;;;;;;3.15;1.75;;;8.40;98.00;;;;;;5073481;28;20056;-76
2021/11/17 13:59:54;;;;;;;3.30;1.80;;;8.40;97.90;;;;;;5072587;28;20115;-74
2021/11/17 14:02:20;;;;;;;3.85;1.98;;;8.50;97.70;;;;;;5069115;28;20212;-74
2021/11/17 14:04:45;;;;;;;2.78;1.90;;;8.50;97.50;;;;;;5084187;28;20032;-75
2021/11/17 14:07:17;;;;;;;4.47;2.53;;;8.50;97.30;;;;;;5088320;28;20090;-77
2021/11/17 14:09:43;;;;;;;3.63;1.98;;;8.60;97.50;;;;;;5072346;28;20107;-74
2021/11/17 14:12:09;;;;;;;3.85;2.00;;;8.60;97.40;;;;;;5090213;28;20033;-74
2021/11/17 14:14:35;;;;;;;4.97;2.20;;;8.60;97.60;;;;;;5091008;28;20552;-77
2021/11/17 14:17:01;;;;;;;3.88;1.90;;;8.60;97.40;;;;;;5071505;28;20061;-74
2021/11/17 14:19:26;;;;;;;4.95;2.33;;;8.60;97.50;;;;;;5072958;28;20035;-78
2021/11/17 14:21:52;;;;;;;4.13;2.33;;;8.50;97.30;;;;;;5092395;28;20024;-78
2021/11/17 14:24:19;;;;;;;4.97;2.30;;;8.40;97.50;;;;;;5074588;28;20232;-77
2021/11/17 14:26:47;;;;;;;4.15;2.38;;;8.40;97.70;;;;;;5074042;28;20024;-78
2021/11/17 14:29:36;;;;;;;4.30;2.55;;;8.40;97.70;;;;;;5073754;28;20039;-75
2021/11/17 14:32:08;;;;;;;4.60;2.17;;;8.50;97.80;;;;;;5053930;28;20032;-77
2021/11/17 14:34:34;;;;;;;3.42;2.10;;;8.40;97.80;;;;;;5090646;28;20526;-77
2021/11/17 14:37:05;;;;;;;2.80;1.98;;;8.40;97.80;;;;;;5072800;28;20089;-76
2021/11/17 14:39:31;;;;;;;5.15;2.40;;;8.40;98.00;;;;;;5072975;28;20035;-77
2021/11/17 14:41:58;;;;;;;5.38;2.58;;;8.30;98.10;;;;;;5072986;28;20457;-77
2021/11/17 14:44:23;;;;;;;5.18;2.97;;;8.30;98.20;;;;;;5072209;28;20028;-77
2021/11/17 14:46:49;;;;;;;5.00;2.45;;;8.30;98.10;;;;;;5072449;28;20461;-78
2021/11/17 14:49:16;;;;;;;5.55;2.25;;;8.20;98.30;;;;;;5071577;28;20028;-77
2021/11/17 14:51:42;;;;;;;3.95;2.20;;;8.20;98.20;;;;;;5071356;28;20035;-77
2021/11/17 14:54:09;;;;;;;3.95;2.20;;;8.20;98.20;;;;;;5089061;28;20020;-77
2021/11/17 14:56:34;;;;;;;3.92;2.30;;;8.20;97.80;;;;;;5089444;28;20091;-77
2021/11/17 14:59:00;;;;;;;5.03;2.53;;;8.20;97.70;;;;;;5069901;28;20134;-78
2021/11/17 15:01:31;;;;;;;5.13;2.63;;;8.20;97.60;;;;;;5090622;28;20024;-78
2021/11/17 15:04:02;;;;;;;4.00;2.50;;;8.20;97.40;;;;;;5052476;28;20106;-77
2021/11/17 15:06:28;;;;;;;4.20;2.13;;;8.20;97.50;;;;;;5071175;28;20552;-76
2021/11/17 15:08:53;;;;;;;4.03;2.45;;;8.20;97.70;;;;;;5059774;28;20024;-76
2021/11/17 15:11:21;;;;;;;3.13;2.13;;;8.10;97.60;;;;;;5067871;28;20031;-76
2021/11/17 15:13:47;;;;;;;3.47;2.08;;;8.20;97.80;;;;;;5083663;28;20016;-76
2021/11/17 15:16:13;;;;;;;4.38;2.42;;;8.10;97.90;;;;;;5082858;28;20035;-77
2021/11/17 15:18:43;;;;;;;5.07;2.33;;;8.10;98.30;;;;;;5090038;28;20032;-76
2021/11/17 15:21:09;;;;;;;4.07;2.30;;;8.20;98.20;;;;;;5073008;28;20036;-77
2021/11/17 15:23:35;;;;;;;5.05;2.55;;;8.20;98.30;;;;;;5074019;28;20035;-77
2021/11/17 15:26:02;;;;;;;5.70;2.22;;;8.10;98.30;;;;;;5071425;28;20048;-77
2021/11/17 15:28:30;;;;;;;3.70;2.30;;;8.10;98.30;;;;;;5089638;28;20514;-75
2021/11/17 15:31:03;;;;;;;3.50;2.20;;;8.10;98.30;;;;;;5071065;28;20028;-75
2021/11/17 15:33:29;;;;;;;3.63;2.13;;;8.10;98.50;;;;;;5089578;28;20523;-76
2021/11/17 15:35:55;;;;;;;5.10;2.85;;;8.10;98.50;;;;;;5089064;28;20040;-75
2021/11/17 15:38:21;;;;;;;3.60;2.50;;;8.20;98.60;;;;;;5069332;28;20123;-77
2021/11/17 15:40:50;;;;;;;4.63;2.13;;;8.10;98.50;;;;;;5071288;28;20123;-75
2021/11/17 15:43:17;;;;;;;4.57;2.35;;;8.10;98.60;;;;;;5069067;28;20028;-75
2021/11/17 15:45:44;;;;;;;3.88;2.55;;;8.10;98.80;;;;;;5071797;28;20031;-75
2021/11/17 15:48:10;;;;;;;4.78;2.45;;;8.10;99.00;;;;;;5088689;28;20040;-77
2021/11/17 15:50:40;;;;;;;5.80;2.28;;;8.10;99.00;;;;;;5065663;28;20024;-76
2021/11/17 15:53:06;;;;;;;3.92;1.90;;;8.00;98.90;;;;;;5085389;28;20457;-77
2021/11/17 15:55:33;;;;;;;3.58;2.50;;;8.00;99.00;;;;;;5071314;28;20111;-77
2021/11/17 15:58:01;;;;;;;5.93;2.38;;;8.00;99.00;;;;;;5085894;28;20512;-78
2021/11/17 16:00:28;;;;;;;4.38;2.40;;;8.00;99.20;;;;;;5069267;28;20040;-77